sensor_id;sensor_type;location;lat;lon;timestamp;temperature;humidity
69944;DHT22;57257;48.408;-4.498;2024-03-07T00:00:54;11.10;72.05
69944;DHT22;57257;48.408;-4.498;2024-03-07T00:03:21;11.12;72.14
69944;DHT22;57257;48.408;-4.498;2024-03-07T00:05:49;11.11;71.95
69944;DHT22;57257;48.408;-4.498;2024-03-07T00:08:15;11.08;71.98
69944;DHT22;57257;48.408;-4.498;2024-03-07T00:10:40;11.07;72.06
69944;DHT22;57257;48.408;-4.498;2024-03-07T00:13:06;11.04;72.08
69944;DHT22;57257;48.408;-4.498;2024-03-07T00:15:33;11.08;72.11
69944;DHT22;57257;48.408;-4.498;2024-03-07T00:17:58;11.08;72.18
69944;DHT22;57257;48.408;-4.498;2024-03-07T00:20:25;11.08;72.03
69944;DHT22;57257;48.408;-4.498;2024-03-07T00:22:50;11.08;71.88
69944;DHT22;57257;48.408;-4.498;2024-03-07T00:25:16;11.07;72.05
69944;DHT22;57257;48.408;-4.498;2024-03-07T00:27:45;11.04;72.17
69944;DHT22;57257;48.408;-4.498;2024-03-07T00:30:11;11.10;72.21
69944;DHT22;57257;48.408;-4.498;2024-03-07T00:32:38;11.08;72.11
69944;DHT22;57257;48.408;-4.498;2024-03-07T00:35:08;11.10;72.09
69944;DHT22;57257;48.408;-4.498;2024-03-07T00:37:36;11.08;72.10
69944;DHT22;57257;48.408;-4.498;2024-03-07T00:40:02;11.08;72.07
69944;DHT22;57257;48.408;-4.498;2024-03-07T00:42:28;11.08;72.08
69944;DHT22;57257;48.408;-4.498;2024-03-07T00:44:54;11.10;72.08
69944;DHT22;57257;48.408;-4.498;2024-03-07T00:47:19;11.11;72.10
69944;DHT22;57257;48.408;-4.498;2024-03-07T00:49:45;11.14;72.24
69944;DHT22;57257;48.408;-4.498;2024-03-07T00:52:12;11.18;72.17
69944;DHT22;57257;48.408;-4.498;2024-03-07T00:54:37;11.19;72.15
69944;DHT22;57257;48.408;-4.498;2024-03-07T00:57:03;11.26;72.08
69944;DHT22;57257;48.408;-4.498;2024-03-07T00:59:29;11.26;72.16
69944;DHT22;57257;48.408;-4.498;2024-03-07T01:01:54;11.28;71.98
69944;DHT22;57257;48.408;-4.498;2024-03-07T01:04:20;11.29;71.84
69944;DHT22;57257;48.408;-4.498;2024-03-07T01:06:46;11.24;71.78
69944;DHT22;57257;48.408;-4.498;2024-03-07T01:09:12;11.24;71.87
69944;DHT22;57257;48.408;-4.498;2024-03-07T01:11:44;11.24;71.74
69944;DHT22;57257;48.408;-4.498;2024-03-07T01:14:10;11.26;71.80
69944;DHT22;57257;48.408;-4.498;2024-03-07T01:16:36;11.25;71.69
69944;DHT22;57257;48.408;-4.498;2024-03-07T01:19:02;11.25;71.82
69944;DHT22;57257;48.408;-4.498;2024-03-07T01:21:27;11.25;71.72
69944;DHT22;57257;48.408;-4.498;2024-03-07T01:23:52;11.22;71.83
69944;DHT22;57257;48.408;-4.498;2024-03-07T01:26:18;11.21;71.80
69944;DHT22;57257;48.408;-4.498;2024-03-07T01:28:44;11.19;71.81
69944;DHT22;57257;48.408;-4.498;2024-03-07T01:31:09;11.22;71.76
69944;DHT22;57257;48.408;-4.498;2024-03-07T01:33:35;11.19;71.60
69944;DHT22;57257;48.408;-4.498;2024-03-07T01:36:01;11.21;71.61
69944;DHT22;57257;48.408;-4.498;2024-03-07T01:38:26;11.19;71.58
69944;DHT22;57257;48.408;-4.498;2024-03-07T01:40:52;11.19;71.49
69944;DHT22;57257;48.408;-4.498;2024-03-07T01:43:17;11.18;71.48
69944;DHT22;57257;48.408;-4.498;2024-03-07T01:45:42;11.14;71.49
69944;DHT22;57257;48.408;-4.498;2024-03-07T01:48:09;11.16;71.59
69944;DHT22;57257;48.408;-4.498;2024-03-07T01:50:35;11.18;71.67
69944;DHT22;57257;48.408;-4.498;2024-03-07T01:53:04;11.21;71.54
69944;DHT22;57257;48.408;-4.498;2024-03-07T01:55:31;11.24;71.48
69944;DHT22;57257;48.408;-4.498;2024-03-07T01:57:59;11.24;71.54
69944;DHT22;57257;48.408;-4.498;2024-03-07T02:00:25;11.22;71.50
69944;DHT22;57257;48.408;-4.498;2024-03-07T02:02:52;11.21;71.72
69944;DHT22;57257;48.408;-4.498;2024-03-07T02:05:18;11.19;71.72
69944;DHT22;57257;48.408;-4.498;2024-03-07T02:07:43;11.22;71.69
69944;DHT22;57257;48.408;-4.498;2024-03-07T02:10:09;11.21;71.66
69944;DHT22;57257;48.408;-4.498;2024-03-07T02:12:35;11.25;71.72
69944;DHT22;57257;48.408;-4.498;2024-03-07T02:15:01;11.24;71.54
69944;DHT22;57257;48.408;-4.498;2024-03-07T02:17:28;11.25;71.52
69944;DHT22;57257;48.408;-4.498;2024-03-07T02:19:53;11.22;71.55
69944;DHT22;57257;48.408;-4.498;2024-03-07T02:22:19;11.24;71.55
69944;DHT22;57257;48.408;-4.498;2024-03-07T02:24:45;11.22;71.50
69944;DHT22;57257;48.408;-4.498;2024-03-07T02:27:12;11.22;71.64
69944;DHT22;57257;48.408;-4.498;2024-03-07T02:29:37;11.22;71.67
69944;DHT22;57257;48.408;-4.498;2024-03-07T02:32:03;11.21;71.28
69944;DHT22;57257;48.408;-4.498;2024-03-07T02:34:29;11.16;71.29
69944;DHT22;57257;48.408;-4.498;2024-03-07T02:36:54;11.10;71.27
69944;DHT22;57257;48.408;-4.498;2024-03-07T02:39:20;11.10;71.30
69944;DHT22;57257;48.408;-4.498;2024-03-07T02:41:50;11.08;71.26
69944;DHT22;57257;48.408;-4.498;2024-03-07T02:44:16;11.08;71.26
69944;DHT22;57257;48.408;-4.498;2024-03-07T02:46:41;11.10;71.21
69944;DHT22;57257;48.408;-4.498;2024-03-07T02:49:07;11.05;71.16
69944;DHT22;57257;48.408;-4.498;2024-03-07T02:51:32;11.04;71.16
69944;DHT22;57257;48.408;-4.498;2024-03-07T02:53:58;11.04;71.15
69944;DHT22;57257;48.408;-4.498;2024-03-07T02:56:23;11.04;70.94
69944;DHT22;57257;48.408;-4.498;2024-03-07T02:58:50;11.00;71.02
69944;DHT22;57257;48.408;-4.498;2024-03-07T03:01:16;11.01;70.90
69944;DHT22;57257;48.408;-4.498;2024-03-07T03:03:42;10.97;70.81
69944;DHT22;57257;48.408;-4.498;2024-03-07T03:06:08;10.93;70.94
69944;DHT22;57257;48.408;-4.498;2024-03-07T03:08:34;10.91;71.12
69944;DHT22;57257;48.408;-4.498;2024-03-07T03:11:00;10.91;71.13
69944;DHT22;57257;48.408;-4.498;2024-03-07T03:13:25;10.88;71.19
69944;DHT22;57257;48.408;-4.498;2024-03-07T03:15:54;10.90;71.24
69944;DHT22;57257;48.408;-4.498;2024-03-07T03:18:23;10.84;71.25
69944;DHT22;57257;48.408;-4.498;2024-03-07T03:20:51;10.84;71.31
69944;DHT22;57257;48.408;-4.498;2024-03-07T03:23:18;10.85;71.27
69944;DHT22;57257;48.408;-4.498;2024-03-07T03:25:43;10.81;71.34
69944;DHT22;57257;48.408;-4.498;2024-03-07T03:28:10;10.80;71.35
69944;DHT22;57257;48.408;-4.498;2024-03-07T03:30:39;10.74;71.54
69944;DHT22;57257;48.408;-4.498;2024-03-07T03:33:06;10.74;71.43
69944;DHT22;57257;48.408;-4.498;2024-03-07T03:35:35;10.70;71.49
69944;DHT22;57257;48.408;-4.498;2024-03-07T03:38:00;10.64;71.49
69944;DHT22;57257;48.408;-4.498;2024-03-07T03:40:26;10.63;71.48
69944;DHT22;57257;48.408;-4.498;2024-03-07T03:42:51;10.59;71.42
69944;DHT22;57257;48.408;-4.498;2024-03-07T03:45:17;10.54;71.51
69944;DHT22;57257;48.408;-4.498;2024-03-07T03:47:43;10.53;71.55
69944;DHT22;57257;48.408;-4.498;2024-03-07T03:50:10;10.50;71.58
69944;DHT22;57257;48.408;-4.498;2024-03-07T03:52:36;10.49;71.61
69944;DHT22;57257;48.408;-4.498;2024-03-07T03:55:03;10.49;71.59
69944;DHT22;57257;48.408;-4.498;2024-03-07T03:57:31;10.49;71.49
69944;DHT22;57257;48.408;-4.498;2024-03-07T03:59:57;10.49;71.46
69944;DHT22;57257;48.408;-4.498;2024-03-07T04:02:22;10.47;71.41
69944;DHT22;57257;48.408;-4.498;2024-03-07T04:04:49;10.46;71.28
69944;DHT22;57257;48.408;-4.498;2024-03-07T04:07:15;10.46;71.27
69944;DHT22;57257;48.408;-4.498;2024-03-07T04:09:43;10.44;71.30
69944;DHT22;57257;48.408;-4.498;2024-03-07T04:12:10;10.43;71.28
69944;DHT22;57257;48.408;-4.498;2024-03-07T04:14:45;10.40;71.24
69944;DHT22;57257;48.408;-4.498;2024-03-07T04:17:10;10.37;71.34
69944;DHT22;57257;48.408;-4.498;2024-03-07T04:19:42;10.34;71.28
69944;DHT22;57257;48.408;-4.498;2024-03-07T04:22:08;10.29;71.26
69944;DHT22;57257;48.408;-4.498;2024-03-07T04:24:36;10.29;71.34
69944;DHT22;57257;48.408;-4.498;2024-03-07T04:27:03;10.26;71.36
69944;DHT22;57257;48.408;-4.498;2024-03-07T04:29:33;10.24;71.40
69944;DHT22;57257;48.408;-4.498;2024-03-07T04:31:59;10.23;71.35
69944;DHT22;57257;48.408;-4.498;2024-03-07T04:34:26;10.19;71.44
69944;DHT22;57257;48.408;-4.498;2024-03-07T04:36:53;10.19;71.41
69944;DHT22;57257;48.408;-4.498;2024-03-07T04:39:18;10.19;71.32
69944;DHT22;57257;48.408;-4.498;2024-03-07T04:41:55;10.17;71.30
69944;DHT22;57257;48.408;-4.498;2024-03-07T04:44:21;10.16;71.26
69944;DHT22;57257;48.408;-4.498;2024-03-07T04:46:50;10.14;71.41
69944;DHT22;57257;48.408;-4.498;2024-03-07T04:49:27;10.14;71.30
69944;DHT22;57257;48.408;-4.498;2024-03-07T04:51:55;10.13;71.26
69944;DHT22;57257;48.408;-4.498;2024-03-07T04:54:22;10.12;71.27
69944;DHT22;57257;48.408;-4.498;2024-03-07T04:56:48;10.08;71.19
69944;DHT22;57257;48.408;-4.498;2024-03-07T04:59:14;10.03;71.23
69944;DHT22;57257;48.408;-4.498;2024-03-07T05:01:40;10.02;71.30
69944;DHT22;57257;48.408;-4.498;2024-03-07T05:04:06;10.03;71.16
69944;DHT22;57257;48.408;-4.498;2024-03-07T05:06:32;9.99;71.08
69944;DHT22;57257;48.408;-4.498;2024-03-07T05:09:04;9.99;70.96
69944;DHT22;57257;48.408;-4.498;2024-03-07T05:11:35;9.99;70.99
69944;DHT22;57257;48.408;-4.498;2024-03-07T05:14:02;9.93;71.16
69944;DHT22;57257;48.408;-4.498;2024-03-07T05:16:28;9.90;71.06
69944;DHT22;57257;48.408;-4.498;2024-03-07T05:18:53;9.88;71.16
69944;DHT22;57257;48.408;-4.498;2024-03-07T05:21:20;9.89;71.08
69944;DHT22;57257;48.408;-4.498;2024-03-07T05:23:57;9.89;70.96
69944;DHT22;57257;48.408;-4.498;2024-03-07T05:26:23;9.85;70.78
69944;DHT22;57257;48.408;-4.498;2024-03-07T05:28:49;9.83;70.70
69944;DHT22;57257;48.408;-4.498;2024-03-07T05:31:14;9.81;70.75
69944;DHT22;57257;48.408;-4.498;2024-03-07T05:33:40;9.79;70.77
69944;DHT22;57257;48.408;-4.498;2024-03-07T05:36:06;9.81;70.73
69944;DHT22;57257;48.408;-4.498;2024-03-07T05:38:44;9.78;70.70
69944;DHT22;57257;48.408;-4.498;2024-03-07T05:41:13;9.75;70.71
69944;DHT22;57257;48.408;-4.498;2024-03-07T05:43:39;9.75;70.70
69944;DHT22;57257;48.408;-4.498;2024-03-07T05:46:05;9.76;70.65
69944;DHT22;57257;48.408;-4.498;2024-03-07T05:48:32;9.74;70.56
69944;DHT22;57257;48.408;-4.498;2024-03-07T05:50:59;9.76;70.53
69944;DHT22;57257;48.408;-4.498;2024-03-07T05:53:25;9.75;70.51
69944;DHT22;57257;48.408;-4.498;2024-03-07T05:55:50;9.75;70.39
69944;DHT22;57257;48.408;-4.498;2024-03-07T05:58:16;9.75;70.29
69944;DHT22;57257;48.408;-4.498;2024-03-07T06:00:45;9.71;70.19
69944;DHT22;57257;48.408;-4.498;2024-03-07T06:03:16;9.71;70.24
69944;DHT22;57257;48.408;-4.498;2024-03-07T06:05:43;9.74;70.23
69944;DHT22;57257;48.408;-4.498;2024-03-07T06:08:13;9.76;70.17
69944;DHT22;57257;48.408;-4.498;2024-03-07T06:10:41;9.71;69.93
69944;DHT22;57257;48.408;-4.498;2024-03-07T06:13:07;9.71;69.82
69944;DHT22;57257;48.408;-4.498;2024-03-07T06:15:32;9.68;69.97
69944;DHT22;57257;48.408;-4.498;2024-03-07T06:17:57;9.72;70.01
69944;DHT22;57257;48.408;-4.498;2024-03-07T06:20:23;9.72;69.84
69944;DHT22;57257;48.408;-4.498;2024-03-07T06:22:49;9.72;69.75
69944;DHT22;57257;48.408;-4.498;2024-03-07T06:25:18;9.71;69.76
69944;DHT22;57257;48.408;-4.498;2024-03-07T06:27:59;9.72;69.49
69944;DHT22;57257;48.408;-4.498;2024-03-07T06:30:24;9.71;69.40
69944;DHT22;57257;48.408;-4.498;2024-03-07T06:32:51;9.68;69.29
69944;DHT22;57257;48.408;-4.498;2024-03-07T06:35:17;9.65;69.12
69944;DHT22;57257;48.408;-4.498;2024-03-07T06:37:44;9.62;69.17
69944;DHT22;57257;48.408;-4.498;2024-03-07T06:40:10;9.65;69.01
69944;DHT22;57257;48.408;-4.498;2024-03-07T06:42:36;9.62;68.80
69944;DHT22;57257;48.408;-4.498;2024-03-07T06:45:03;9.61;68.78
69944;DHT22;57257;48.408;-4.498;2024-03-07T06:47:28;9.62;68.69
69944;DHT22;57257;48.408;-4.498;2024-03-07T06:49:54;9.58;68.40
69944;DHT22;57257;48.408;-4.498;2024-03-07T06:52:21;9.59;68.37
69944;DHT22;57257;48.408;-4.498;2024-03-07T06:54:46;9.59;68.33
69944;DHT22;57257;48.408;-4.498;2024-03-07T06:57:12;9.61;68.38
69944;DHT22;57257;48.408;-4.498;2024-03-07T06:59:37;9.65;68.43
69944;DHT22;57257;48.408;-4.498;2024-03-07T07:02:03;9.75;68.04
69944;DHT22;57257;48.408;-4.498;2024-03-07T07:04:29;9.78;67.85
69944;DHT22;57257;48.408;-4.498;2024-03-07T07:07:07;9.88;67.54
69944;DHT22;57257;48.408;-4.498;2024-03-07T07:09:35;9.89;67.13
69944;DHT22;57257;48.408;-4.498;2024-03-07T07:12:00;9.95;67.25
69944;DHT22;57257;48.408;-4.498;2024-03-07T07:14:28;10.02;66.90
69944;DHT22;57257;48.408;-4.498;2024-03-07T07:16:54;10.09;66.62
69944;DHT22;57257;48.408;-4.498;2024-03-07T07:19:19;10.13;66.25
69944;DHT22;57257;48.408;-4.498;2024-03-07T07:21:44;10.26;66.37
69944;DHT22;57257;48.408;-4.498;2024-03-07T07:24:10;10.40;66.01
69944;DHT22;57257;48.408;-4.498;2024-03-07T07:26:36;10.53;65.47
69944;DHT22;57257;48.408;-4.498;2024-03-07T07:29:01;10.59;64.91
69944;DHT22;57257;48.408;-4.498;2024-03-07T07:31:29;10.68;64.75
69944;DHT22;57257;48.408;-4.498;2024-03-07T07:33:55;10.75;64.14
69944;DHT22;57257;48.408;-4.498;2024-03-07T07:36:20;10.90;64.07
69944;DHT22;57257;48.408;-4.498;2024-03-07T07:38:46;10.97;63.38
69944;DHT22;57257;48.408;-4.498;2024-03-07T07:41:12;11.11;63.60
69944;DHT22;57257;48.408;-4.498;2024-03-07T07:43:39;11.26;63.37
69944;DHT22;57257;48.408;-4.498;2024-03-07T07:46:05;11.34;62.46
69944;DHT22;57257;48.408;-4.498;2024-03-07T07:48:31;11.38;61.44
69944;DHT22;57257;48.408;-4.498;2024-03-07T07:50:56;11.39;61.36
69944;DHT22;57257;48.408;-4.498;2024-03-07T07:53:22;11.45;61.54
69944;DHT22;57257;48.408;-4.498;2024-03-07T07:55:47;11.55;60.84
69944;DHT22;57257;48.408;-4.498;2024-03-07T07:58:14;11.66;60.73
69944;DHT22;57257;48.408;-4.498;2024-03-07T08:00:40;11.73;60.02
69944;DHT22;57257;48.408;-4.498;2024-03-07T08:03:08;11.79;59.28
69944;DHT22;57257;48.408;-4.498;2024-03-07T08:05:35;11.83;58.78
69944;DHT22;57257;48.408;-4.498;2024-03-07T08:08:07;11.93;59.08
69944;DHT22;57257;48.408;-4.498;2024-03-07T08:10:34;12.02;58.68
69944;DHT22;57257;48.408;-4.498;2024-03-07T08:13:01;12.09;58.12
69944;DHT22;57257;48.408;-4.498;2024-03-07T08:15:30;12.19;58.26
69944;DHT22;57257;48.408;-4.498;2024-03-07T08:17:56;12.33;57.92
69944;DHT22;57257;48.408;-4.498;2024-03-07T08:20:24;12.38;57.31
69944;DHT22;57257;48.408;-4.498;2024-03-07T08:22:52;12.44;57.11
69944;DHT22;57257;48.408;-4.498;2024-03-07T08:25:19;12.51;57.20
69944;DHT22;57257;48.408;-4.498;2024-03-07T08:27:47;12.60;56.10
69944;DHT22;57257;48.408;-4.498;2024-03-07T08:30:13;12.60;56.00
69944;DHT22;57257;48.408;-4.498;2024-03-07T08:35:09;12.85;54.96
69944;DHT22;57257;48.408;-4.498;2024-03-07T08:40:03;12.97;54.11
69944;DHT22;57257;48.408;-4.498;2024-03-07T08:42:36;13.07;54.28
69944;DHT22;57257;48.408;-4.498;2024-03-07T08:45:03;13.18;53.87
69944;DHT22;57257;48.408;-4.498;2024-03-07T08:47:31;13.22;53.60
69944;DHT22;57257;48.408;-4.498;2024-03-07T08:49:56;13.26;53.63
69944;DHT22;57257;48.408;-4.498;2024-03-07T08:52:21;13.30;53.52
69944;DHT22;57257;48.408;-4.498;2024-03-07T08:54:47;13.20;53.03
69944;DHT22;57257;48.408;-4.498;2024-03-07T08:57:13;13.20;53.61
69944;DHT22;57257;48.408;-4.498;2024-03-07T08:59:42;13.22;51.91
69944;DHT22;57257;48.408;-4.498;2024-03-07T09:02:08;13.26;50.99
69944;DHT22;57257;48.408;-4.498;2024-03-07T09:04:33;13.32;51.42
69944;DHT22;57257;48.408;-4.498;2024-03-07T09:06:59;13.28;50.83
69944;DHT22;57257;48.408;-4.498;2024-03-07T09:09:27;13.19;51.08
69944;DHT22;57257;48.408;-4.498;2024-03-07T09:11:52;13.18;50.95
69944;DHT22;57257;48.408;-4.498;2024-03-07T09:14:18;13.14;51.72
69944;DHT22;57257;48.408;-4.498;2024-03-07T09:16:44;13.05;51.77
69944;DHT22;57257;48.408;-4.498;2024-03-07T09:19:16;12.99;51.76
69944;DHT22;57257;48.408;-4.498;2024-03-07T09:21:46;12.98;51.48
69944;DHT22;57257;48.408;-4.498;2024-03-07T09:24:13;12.87;51.04
69944;DHT22;57257;48.408;-4.498;2024-03-07T09:26:41;12.87;52.06
69944;DHT22;57257;48.408;-4.498;2024-03-07T09:29:08;12.92;51.73
69944;DHT22;57257;48.408;-4.498;2024-03-07T09:31:33;12.95;51.93
69944;DHT22;57257;48.408;-4.498;2024-03-07T09:33:59;12.94;51.60
69944;DHT22;57257;48.408;-4.498;2024-03-07T09:36:25;12.99;51.16
69944;DHT22;57257;48.408;-4.498;2024-03-07T09:38:51;13.09;50.68
69944;DHT22;57257;48.408;-4.498;2024-03-07T09:41:17;13.15;50.95
69944;DHT22;57257;48.408;-4.498;2024-03-07T09:43:47;13.23;50.73
69944;DHT22;57257;48.408;-4.498;2024-03-07T09:46:25;13.30;50.75
69944;DHT22;57257;48.408;-4.498;2024-03-07T09:49:00;13.32;50.33
69944;DHT22;57257;48.408;-4.498;2024-03-07T09:51:27;13.36;50.79
69944;DHT22;57257;48.408;-4.498;2024-03-07T09:53:53;13.35;49.86
69944;DHT22;57257;48.408;-4.498;2024-03-07T09:56:23;13.36;50.44
69944;DHT22;57257;48.408;-4.498;2024-03-07T09:58:51;13.39;50.80
69944;DHT22;57257;48.408;-4.498;2024-03-07T10:01:20;13.38;50.04
69944;DHT22;57257;48.408;-4.498;2024-03-07T10:03:50;13.38;50.74
69944;DHT22;57257;48.408;-4.498;2024-03-07T10:06:18;13.34;49.94
69944;DHT22;57257;48.408;-4.498;2024-03-07T10:08:48;13.32;50.72
69944;DHT22;57257;48.408;-4.498;2024-03-07T10:11:13;13.35;50.31
69944;DHT22;57257;48.408;-4.498;2024-03-07T10:13:39;13.35;49.98
69944;DHT22;57257;48.408;-4.498;2024-03-07T10:16:06;13.49;50.19
69944;DHT22;57257;48.408;-4.498;2024-03-07T10:18:41;13.69;50.53
69944;DHT22;57257;48.408;-4.498;2024-03-07T10:21:07;13.94;49.16
69944;DHT22;57257;48.408;-4.498;2024-03-07T10:23:32;14.18;49.68
69944;DHT22;57257;48.408;-4.498;2024-03-07T10:26:01;14.35;48.05
69944;DHT22;57257;48.408;-4.498;2024-03-07T10:28:29;14.48;47.71
69944;DHT22;57257;48.408;-4.498;2024-03-07T10:30:56;14.58;47.32
69944;DHT22;57257;48.408;-4.498;2024-03-07T10:33:26;14.72;47.75
69944;DHT22;57257;48.408;-4.498;2024-03-07T10:35:53;14.82;47.10
69944;DHT22;57257;48.408;-4.498;2024-03-07T10:38:19;14.85;47.02
69944;DHT22;57257;48.408;-4.498;2024-03-07T10:40:47;14.99;47.38
69944;DHT22;57257;48.408;-4.498;2024-03-07T10:43:20;15.10;47.02
69944;DHT22;57257;48.408;-4.498;2024-03-07T10:45:50;15.15;46.35
69944;DHT22;57257;48.408;-4.498;2024-03-07T10:48:25;15.15;44.00
69944;DHT22;57257;48.408;-4.498;2024-03-07T10:51:02;14.95;44.00
69944;DHT22;57257;48.408;-4.498;2024-03-07T10:53:46;14.87;44.70
69944;DHT22;57257;48.408;-4.498;2024-03-07T10:56:17;14.87;45.89
69944;DHT22;57257;48.408;-4.498;2024-03-07T11:01:23;14.82;44.06
69944;DHT22;57257;48.408;-4.498;2024-03-07T11:03:51;14.84;44.09
69944;DHT22;57257;48.408;-4.498;2024-03-07T11:06:18;14.93;44.90
69944;DHT22;57257;48.408;-4.498;2024-03-07T11:08:45;15.01;44.20
69944;DHT22;57257;48.408;-4.498;2024-03-07T11:11:12;15.02;43.46
69944;DHT22;57257;48.408;-4.498;2024-03-07T11:13:39;14.95;44.36
69944;DHT22;57257;48.408;-4.498;2024-03-07T11:16:06;14.96;44.94
69944;DHT22;57257;48.408;-4.498;2024-03-07T11:18:32;14.98;44.22
69944;DHT22;57257;48.408;-4.498;2024-03-07T11:20:57;14.99;44.27
69944;DHT22;57257;48.408;-4.498;2024-03-07T11:23:30;14.96;43.99
69944;DHT22;57257;48.408;-4.498;2024-03-07T11:26:03;15.01;44.53
69944;DHT22;57257;48.408;-4.498;2024-03-07T11:28:32;14.99;43.62
69944;DHT22;57257;48.408;-4.498;2024-03-07T11:31:15;14.95;43.72
69944;DHT22;57257;48.408;-4.498;2024-03-07T11:34:12;14.99;43.87
69944;DHT22;57257;48.408;-4.498;2024-03-07T11:36:43;14.98;43.50
69944;DHT22;57257;48.408;-4.498;2024-03-07T11:39:41;15.13;43.97
69944;DHT22;57257;48.408;-4.498;2024-03-07T11:42:29;15.09;43.21
69944;DHT22;57257;48.408;-4.498;2024-03-07T11:44:57;15.05;42.74
69944;DHT22;57257;48.408;-4.498;2024-03-07T11:47:26;14.93;43.61
69944;DHT22;57257;48.408;-4.498;2024-03-07T11:49:55;14.93;44.00
69944;DHT22;57257;48.408;-4.498;2024-03-07T11:52:25;14.93;43.17
69944;DHT22;57257;48.408;-4.498;2024-03-07T11:54:53;14.93;43.39
69944;DHT22;57257;48.408;-4.498;2024-03-07T11:57:22;14.96;43.75
69944;DHT22;57257;48.408;-4.498;2024-03-07T11:59:58;14.99;43.11
69944;DHT22;57257;48.408;-4.498;2024-03-07T12:02:26;15.02;43.35
69944;DHT22;57257;48.408;-4.498;2024-03-07T12:04:52;15.03;43.20
69944;DHT22;57257;48.408;-4.498;2024-03-07T12:07:18;15.15;43.82
69944;DHT22;57257;48.408;-4.498;2024-03-07T12:09:44;15.20;43.44
69944;DHT22;57257;48.408;-4.498;2024-03-07T12:12:16;15.26;43.42
69944;DHT22;57257;48.408;-4.498;2024-03-07T12:14:46;15.32;43.17
69944;DHT22;57257;48.408;-4.498;2024-03-07T12:17:13;15.32;42.95
69944;DHT22;57257;48.408;-4.498;2024-03-07T12:19:40;15.39;43.21
69944;DHT22;57257;48.408;-4.498;2024-03-07T12:22:09;15.43;42.21
69944;DHT22;57257;48.408;-4.498;2024-03-07T12:24:41;15.44;42.39
69944;DHT22;57257;48.408;-4.498;2024-03-07T12:27:11;15.43;42.17
69944;DHT22;57257;48.408;-4.498;2024-03-07T12:29:38;15.46;42.69
69944;DHT22;57257;48.408;-4.498;2024-03-07T12:32:06;15.56;42.74
69944;DHT22;57257;48.408;-4.498;2024-03-07T12:34:42;15.64;42.81
69944;DHT22;57257;48.408;-4.498;2024-03-07T12:37:11;15.69;42.11
69944;DHT22;57257;48.408;-4.498;2024-03-07T12:39:44;15.70;42.91
69944;DHT22;57257;48.408;-4.498;2024-03-07T12:42:15;15.70;41.93
69944;DHT22;57257;48.408;-4.498;2024-03-07T12:44:42;15.74;43.03
69944;DHT22;57257;48.408;-4.498;2024-03-07T12:47:12;15.90;42.98
69944;DHT22;57257;48.408;-4.498;2024-03-07T12:49:42;16.07;42.96
69944;DHT22;57257;48.408;-4.498;2024-03-07T12:52:07;16.10;42.55
69944;DHT22;57257;48.408;-4.498;2024-03-07T12:54:36;16.16;43.27
69944;DHT22;57257;48.408;-4.498;2024-03-07T12:57:10;16.11;42.39
69944;DHT22;57257;48.408;-4.498;2024-03-07T12:59:37;16.14;42.93
69944;DHT22;57257;48.408;-4.498;2024-03-07T13:02:09;16.25;42.97
69944;DHT22;57257;48.408;-4.498;2024-03-07T13:04:35;16.22;42.01
69944;DHT22;57257;48.408;-4.498;2024-03-07T13:07:04;16.21;42.01
69944;DHT22;57257;48.408;-4.498;2024-03-07T13:09:31;16.17;42.07
69944;DHT22;57257;48.408;-4.498;2024-03-07T13:11:58;16.14;42.69
69944;DHT22;57257;48.408;-4.498;2024-03-07T13:14:28;16.18;42.84
69944;DHT22;57257;48.408;-4.498;2024-03-07T13:17:00;16.20;41.94
69944;DHT22;57257;48.408;-4.498;2024-03-07T13:19:29;16.21;41.76
69944;DHT22;57257;48.408;-4.498;2024-03-07T13:21:55;16.24;42.00
69944;DHT22;57257;48.408;-4.498;2024-03-07T13:24:22;16.16;40.78
69944;DHT22;57257;48.408;-4.498;2024-03-07T13:26:48;16.11;41.47
69944;DHT22;57257;48.408;-4.498;2024-03-07T13:29:14;16.10;41.36
69944;DHT22;57257;48.408;-4.498;2024-03-07T13:31:40;16.04;41.41
69944;DHT22;57257;48.408;-4.498;2024-03-07T13:34:11;16.00;41.63
69944;DHT22;57257;48.408;-4.498;2024-03-07T13:36:42;15.97;42.41
69944;DHT22;57257;48.408;-4.498;2024-03-07T13:39:08;16.00;42.38
69944;DHT22;57257;48.408;-4.498;2024-03-07T13:41:37;16.03;41.16
69944;DHT22;57257;48.408;-4.498;2024-03-07T13:44:04;16.01;41.52
69944;DHT22;57257;48.408;-4.498;2024-03-07T13:46:29;16.03;42.25
69944;DHT22;57257;48.408;-4.498;2024-03-07T13:48:58;16.08;42.29
69944;DHT22;57257;48.408;-4.498;2024-03-07T13:51:32;16.14;42.28
69944;DHT22;57257;48.408;-4.498;2024-03-07T13:54:00;16.27;42.52
69944;DHT22;57257;48.408;-4.498;2024-03-07T13:56:50;16.48;41.60
69944;DHT22;57257;48.408;-4.498;2024-03-07T13:59:49;16.57;40.34
69944;DHT22;57257;48.408;-4.498;2024-03-07T14:05:59;16.65;39.94
69944;DHT22;57257;48.408;-4.498;2024-03-07T14:31:11;17.64;38.82
69944;DHT22;57257;48.408;-4.498;2024-03-07T14:39:03;17.81;38.32
69944;DHT22;57257;48.408;-4.498;2024-03-07T14:41:48;17.80;37.85
69944;DHT22;57257;48.408;-4.498;2024-03-07T14:44:16;17.84;38.07
69944;DHT22;57257;48.408;-4.498;2024-03-07T14:46:42;18.04;38.60
69944;DHT22;57257;48.408;-4.498;2024-03-07T14:49:13;18.32;36.85
69944;DHT22;57257;48.408;-4.498;2024-03-07T14:51:41;18.58;35.22
69944;DHT22;57257;48.408;-4.498;2024-03-07T14:54:06;18.83;34.44
69944;DHT22;57257;48.408;-4.498;2024-03-07T14:56:33;19.26;33.75
69944;DHT22;57257;48.408;-4.498;2024-03-07T14:58:59;19.44;33.07
69944;DHT22;57257;48.408;-4.498;2024-03-07T15:01:26;19.58;32.53
69944;DHT22;57257;48.408;-4.498;2024-03-07T15:03:53;19.64;32.96
69944;DHT22;57257;48.408;-4.498;2024-03-07T15:06:18;19.64;33.59
69944;DHT22;57257;48.408;-4.498;2024-03-07T15:08:46;19.53;33.20
69944;DHT22;57257;48.408;-4.498;2024-03-07T15:11:33;19.14;33.22
69944;DHT22;57257;48.408;-4.498;2024-03-07T15:13:59;18.75;34.62
69944;DHT22;57257;48.408;-4.498;2024-03-07T15:16:27;18.52;35.15
69944;DHT22;57257;48.408;-4.498;2024-03-07T15:18:53;18.39;35.45
69944;DHT22;57257;48.408;-4.498;2024-03-07T15:21:19;18.44;36.38
69944;DHT22;57257;48.408;-4.498;2024-03-07T15:23:45;18.72;36.34
69944;DHT22;57257;48.408;-4.498;2024-03-07T15:26:11;18.93;35.87
69944;DHT22;57257;48.408;-4.498;2024-03-07T15:28:37;19.22;35.04
69944;DHT22;57257;48.408;-4.498;2024-03-07T15:31:03;19.53;34.80
69944;DHT22;57257;48.408;-4.498;2024-03-07T15:33:35;19.98;34.31
69944;DHT22;57257;48.408;-4.498;2024-03-07T15:36:01;20.48;34.05
69944;DHT22;57257;48.408;-4.498;2024-03-07T15:38:30;20.65;33.05
69944;DHT22;57257;48.408;-4.498;2024-03-07T15:41:03;20.25;33.01
69944;DHT22;57257;48.408;-4.498;2024-03-07T15:43:29;19.80;33.07
69944;DHT22;57257;48.408;-4.498;2024-03-07T15:45:55;19.41;33.75
69944;DHT22;57257;48.408;-4.498;2024-03-07T15:48:24;19.10;33.85
69944;DHT22;57257;48.408;-4.498;2024-03-07T15:50:51;18.86;34.42
69944;DHT22;57257;48.408;-4.498;2024-03-07T15:53:17;18.61;34.76
69944;DHT22;57257;48.408;-4.498;2024-03-07T15:55:43;18.32;35.06
69944;DHT22;57257;48.408;-4.498;2024-03-07T15:58:09;18.04;35.44
69944;DHT22;57257;48.408;-4.498;2024-03-07T16:00:36;17.80;35.92